createdAt,value
2022-12-28T00:00:13.317Z,3.89
2022-12-28T00:03:02.413Z,3.88
2022-12-28T00:05:31.603Z,3.86
2022-12-28T00:08:00.956Z,3.85
2022-12-28T00:11:08.663Z,3.85
2022-12-28T00:13:19.217Z,3.85
2022-12-28T00:15:48.300Z,3.85
2022-12-28T00:18:17.205Z,3.83
2022-12-28T00:20:55.257Z,3.79
2022-12-28T00:23:24.256Z,3.85
2022-12-28T00:25:53.718Z,3.80
2022-12-28T00:28:23.258Z,3.78
2022-12-28T00:30:52.455Z,3.76
2022-12-28T00:33:21.518Z,3.78
2022-12-28T00:35:54.527Z,3.76
2022-12-28T00:38:24.085Z,3.78
2022-12-28T00:40:53.043Z,3.75
2022-12-28T00:43:21.932Z,3.76
2022-12-28T00:45:50.933Z,3.73
2022-12-28T00:48:20.313Z,3.71
2022-12-28T00:50:49.393Z,3.71
2022-12-28T00:53:18.301Z,3.71
2022-12-28T00:55:47.538Z,3.66
2022-12-28T00:58:16.415Z,3.66
2022-12-28T01:00:45.618Z,3.65
2022-12-28T01:03:14.797Z,3.63
2022-12-28T01:05:43.692Z,3.66
2022-12-28T01:08:12.575Z,3.65
2022-12-28T01:10:42.116Z,3.65
2022-12-28T01:13:12.210Z,3.63
2022-12-28T01:15:41.059Z,3.59
2022-12-28T01:18:09.906Z,3.62
2022-12-28T01:20:41.608Z,3.59
2022-12-28T01:23:11.275Z,3.58
2022-12-28T01:25:40.312Z,3.55
2022-12-28T01:28:09.184Z,3.54
2022-12-28T01:30:38.969Z,3.55
2022-12-28T01:33:08.153Z,3.50
2022-12-28T01:35:38.017Z,3.51
2022-12-28T01:38:06.944Z,3.47
2022-12-28T01:40:35.925Z,3.47
2022-12-28T01:43:13.170Z,3.50
2022-12-28T01:45:46.786Z,3.48
2022-12-28T01:48:21.204Z,3.47
2022-12-28T01:50:51.251Z,3.45
2022-12-28T01:53:21.364Z,3.45
2022-12-28T01:55:50.404Z,3.43
2022-12-28T01:58:25.130Z,3.38
2022-12-28T02:00:54.943Z,3.35
2022-12-28T02:03:27.806Z,3.34
2022-12-28T02:06:00.391Z,3.31
2022-12-28T02:08:38.680Z,3.30
2022-12-28T02:11:10.674Z,3.28
2022-12-28T02:13:40.386Z,3.27
2022-12-28T02:16:11.295Z,3.23
2022-12-28T02:18:42.633Z,3.21
2022-12-28T02:21:22.391Z,3.17
2022-12-28T02:24:20.350Z,3.11
2022-12-28T02:26:56.345Z,3.06
2022-12-28T02:29:58.237Z,3.00
2022-12-28T02:32:44.015Z,2.92
2022-12-28T02:35:19.658Z,2.86
2022-12-28T02:37:55.972Z,2.79
2022-12-28T02:40:30.326Z,2.72
2022-12-28T02:43:02.195Z,2.67
2022-12-28T02:45:54.642Z,2.61
2022-12-28T02:48:42.694Z,2.54
2022-12-28T02:51:44.658Z,2.47
2022-12-28T02:54:54.416Z,2.37
2022-12-28T02:57:40.552Z,2.33
2022-12-28T03:00:12.819Z,2.27
2022-12-28T03:02:56.101Z,2.18
2022-12-28T03:05:57.917Z,2.14
2022-12-28T03:08:36.557Z,2.07
2022-12-28T03:11:09.433Z,2.03
2022-12-28T03:13:46.601Z,1.98
2022-12-28T03:16:25.659Z,1.92
2022-12-28T03:19:18.781Z,1.90
2022-12-28T03:22:07.469Z,1.85
2022-12-28T03:24:57.998Z,1.81
2022-12-28T03:27:47.632Z,1.74
2022-12-28T03:30:39.109Z,1.70
2022-12-28T03:33:11.569Z,1.68
2022-12-28T03:35:46.237Z,1.67
2022-12-28T03:38:26.816Z,1.65
2022-12-28T03:41:03.379Z,1.62
2022-12-28T03:43:41.959Z,1.57
2022-12-28T03:46:18.518Z,1.54
2022-12-28T03:48:49.219Z,1.51
2022-12-28T03:51:22.729Z,1.49
2022-12-28T03:53:52.801Z,1.44
2022-12-28T03:56:24.828Z,1.42
2022-12-28T03:58:57.483Z,1.39
2022-12-28T04:01:30.908Z,1.36
2022-12-28T04:04:00.270Z,1.30
2022-12-28T04:06:29.323Z,1.27
2022-12-28T04:08:58.608Z,1.23
2022-12-28T04:11:28.934Z,1.20
2022-12-28T04:14:01.212Z,1.15
2022-12-28T04:16:34.985Z,1.12
2022-12-28T04:19:04.778Z,1.09
2022-12-28T04:21:33.700Z,1.02
2022-12-28T04:24:03.377Z,0.99
2022-12-28T04:26:33.220Z,0.93
2022-12-28T04:29:02.707Z,0.92
2022-12-28T04:31:47.682Z,0.87
2022-12-28T04:34:19.953Z,0.82
2022-12-28T04:36:56.002Z,0.78
2022-12-28T04:39:24.889Z,0.74
2022-12-28T04:41:53.886Z,0.68
2022-12-28T04:44:22.950Z,0.67
2022-12-28T04:46:52.097Z,0.63
2022-12-28T04:49:21.313Z,0.63
2022-12-28T04:51:50.236Z,0.60
2022-12-28T04:54:19.304Z,0.60
2022-12-28T04:56:48.374Z,0.59
2022-12-28T04:59:17.343Z,0.61
2022-12-28T05:01:46.385Z,0.59
2022-12-28T05:04:15.399Z,0.56
2022-12-28T05:06:44.416Z,0.57
2022-12-28T05:09:13.423Z,0.56
2022-12-28T05:11:42.316Z,0.53
2022-12-28T05:14:11.223Z,0.51
2022-12-28T05:16:40.153Z,0.49
2022-12-28T05:19:09.142Z,0.47
2022-12-28T05:21:38.230Z,0.46
2022-12-28T05:24:08.507Z,0.43
2022-12-28T05:26:37.336Z,0.37
2022-12-28T05:29:06.208Z,0.37
2022-12-28T05:31:35.315Z,0.32
2022-12-28T05:34:04.909Z,0.29
2022-12-28T05:36:37.520Z,0.26
2022-12-28T05:39:06.762Z,0.25
2022-12-28T05:41:35.599Z,0.25
2022-12-28T05:44:05.025Z,0.21
2022-12-28T05:46:35.045Z,0.19
2022-12-28T05:49:07.662Z,0.16
2022-12-28T05:51:39.542Z,0.14
2022-12-28T05:54:08.833Z,0.11
2022-12-28T05:56:37.835Z,0.09
2022-12-28T05:59:07.511Z,0.05
2022-12-28T06:01:39.357Z,0.08
2022-12-28T06:04:13.522Z,0.02
2022-12-28T06:06:42.716Z,0.02
2022-12-28T06:09:11.864Z,-0.01
2022-12-28T06:11:41.266Z,0.02
2022-12-28T06:14:10.371Z,0.01
2022-12-28T06:16:41.559Z,-0.01
2022-12-28T06:19:14.329Z,0.02
2022-12-28T06:21:43.679Z,0.02
2022-12-28T06:24:13.605Z,0.01
2022-12-28T06:26:42.669Z,0.04
2022-12-28T06:29:11.677Z,0.05
2022-12-28T06:31:44.778Z,0.06
2022-12-28T06:34:14.133Z,0.09
2022-12-28T06:36:45.295Z,0.09
2022-12-28T06:39:15.176Z,0.09
2022-12-28T06:41:44.032Z,0.08
2022-12-28T06:44:13.891Z,0.08
2022-12-28T06:46:42.883Z,0.08
2022-12-28T06:49:11.960Z,0.08
2022-12-28T06:51:41.473Z,0.06
2022-12-28T06:54:11.130Z,0.05
2022-12-28T06:56:40.254Z,0.08
2022-12-28T06:59:09.271Z,0.08
2022-12-28T07:01:40.567Z,0.11
2022-12-28T07:04:10.373Z,0.11
2022-12-28T07:06:41.712Z,0.14
2022-12-28T07:09:13.158Z,0.15
2022-12-28T07:11:42.144Z,0.15
2022-12-28T07:14:11.276Z,0.19
2022-12-28T07:19:09.326Z,0.21
2022-12-28T07:21:40.264Z,0.28
2022-12-28T07:24:10.113Z,0.32
2022-12-28T07:26:39.388Z,0.37
2022-12-28T07:29:09.236Z,0.47
2022-12-28T07:31:45.222Z,0.53
2022-12-28T07:34:15.473Z,0.63
2022-12-28T07:36:44.327Z,0.67
2022-12-28T07:39:14.073Z,0.75
2022-12-28T07:41:43.000Z,0.79
2022-12-28T07:44:11.932Z,0.88
2022-12-28T07:46:40.836Z,0.95
2022-12-28T07:49:09.836Z,1.00
2022-12-28T07:51:39.797Z,1.03
2022-12-28T07:54:08.889Z,1.07
2022-12-28T07:59:06.844Z,1.19
2022-12-28T08:01:37.160Z,1.26
2022-12-28T08:04:08.527Z,1.32
2022-12-28T08:06:40.152Z,1.36
2022-12-28T08:09:10.799Z,1.42
2022-12-28T08:11:41.745Z,1.46
2022-12-28T08:14:12.074Z,1.51
2022-12-28T08:16:43.392Z,1.53
2022-12-28T08:19:13.813Z,1.58
2022-12-28T08:21:44.821Z,1.62
2022-12-28T08:24:16.560Z,1.68
2022-12-28T08:26:46.363Z,1.72
2022-12-28T08:29:18.756Z,1.78
2022-12-28T08:31:48.363Z,1.86
2022-12-28T08:34:19.447Z,1.93
2022-12-28T08:36:48.577Z,2.02
2022-12-28T08:39:17.488Z,2.12
2022-12-28T08:41:46.912Z,2.23
2022-12-28T08:44:15.866Z,2.37
2022-12-28T08:46:45.018Z,2.51
2022-12-28T08:49:14.277Z,2.65
2022-12-28T08:51:43.303Z,2.81
2022-12-28T08:54:13.748Z,2.93
2022-12-28T08:56:44.210Z,3.07
2022-12-28T08:59:15.056Z,3.24
2022-12-28T09:01:45.068Z,3.35
2022-12-28T09:04:18.015Z,3.50
2022-12-28T09:06:47.417Z,3.59
2022-12-28T09:09:18.667Z,3.71
2022-12-28T09:11:48.469Z,3.83
2022-12-28T09:14:23.298Z,3.94
2022-12-28T09:16:53.837Z,4.07
2022-12-28T09:19:23.242Z,4.14
2022-12-28T09:21:52.803Z,4.22
2022-12-28T09:24:22.494Z,4.29
2022-12-28T09:26:52.288Z,4.39
2022-12-28T09:29:21.307Z,4.45
2022-12-28T09:31:50.259Z,4.52
2022-12-28T09:34:36.755Z,4.58
2022-12-28T09:37:07.925Z,4.63
2022-12-28T09:39:36.945Z,4.63
2022-12-28T09:42:14.632Z,4.71
2022-12-28T09:44:50.003Z,4.79
2022-12-28T09:47:29.578Z,4.84
2022-12-28T09:50:11.550Z,4.90
2022-12-28T09:52:49.856Z,4.99
2022-12-28T09:55:20.267Z,5.07
2022-12-28T09:57:51.609Z,5.18
2022-12-28T10:00:23.005Z,5.27
2022-12-28T10:02:56.700Z,5.37
2022-12-28T10:05:27.237Z,5.56
2022-12-28T10:07:59.046Z,5.77
2022-12-28T10:10:28.963Z,5.97
2022-12-28T10:13:04.588Z,6.24
2022-12-28T10:15:35.815Z,6.43
2022-12-28T10:18:06.691Z,6.60
2022-12-28T10:20:35.691Z,6.69
2022-12-28T10:23:05.344Z,6.67
2022-12-28T10:25:34.464Z,6.61
2022-12-28T10:28:07.732Z,6.49
2022-12-28T10:30:46.102Z,6.40
2022-12-28T10:33:19.199Z,6.24
2022-12-28T10:35:54.043Z,6.18
2022-12-28T10:38:25.943Z,6.11
2022-12-28T10:41:01.163Z,6.00
2022-12-28T10:43:33.095Z,5.97
2022-12-28T10:46:06.441Z,5.90
2022-12-28T10:48:38.948Z,5.82
2022-12-28T10:51:14.722Z,5.73
2022-12-28T10:53:45.517Z,5.66
2022-12-28T10:56:32.568Z,5.63
2022-12-28T10:59:20.505Z,5.59
2022-12-28T11:01:49.844Z,5.53
2022-12-28T11:04:21.300Z,5.48
2022-12-28T11:06:55.551Z,5.45
2022-12-28T11:09:26.395Z,5.42
2022-12-28T11:11:57.177Z,5.37
2022-12-28T11:14:31.810Z,5.32
2022-12-28T11:17:14.215Z,5.32
2022-12-28T11:19:43.612Z,5.27
2022-12-28T11:22:15.421Z,5.18
2022-12-28T11:24:44.482Z,5.14
2022-12-28T11:27:16.969Z,5.06
2022-12-28T11:29:48.884Z,5.00
2022-12-28T11:32:22.507Z,4.99
2022-12-28T11:34:53.063Z,4.96
2022-12-28T11:37:21.962Z,4.93
2022-12-28T11:39:52.244Z,4.91
2022-12-28T11:42:55.369Z,4.96
2022-12-28T11:45:54.411Z,4.96
2022-12-28T11:48:56.320Z,4.99
2022-12-28T11:51:27.653Z,5.01
2022-12-28T11:53:59.097Z,5.03
2022-12-28T11:56:49.081Z,5.07
2022-12-28T11:59:26.770Z,5.06
2022-12-28T12:01:57.667Z,5.07
2022-12-28T12:04:38.368Z,5.07
2022-12-28T12:07:26.023Z,5.08
2022-12-28T12:10:29.251Z,5.04
2022-12-28T12:12:59.137Z,5.04
2022-12-28T12:15:39.752Z,5.01
2022-12-28T12:18:18.918Z,5.03
2022-12-28T12:20:55.533Z,5.00
2022-12-28T12:23:41.468Z,5.00
2022-12-28T12:26:31.073Z,5.03
2022-12-28T12:29:04.820Z,5.03
2022-12-28T12:31:36.106Z,5.06
2022-12-28T12:34:19.033Z,5.03
2022-12-28T12:37:16.705Z,5.04
2022-12-28T12:40:05.041Z,5.04
2022-12-28T12:42:42.715Z,4.99
2022-12-28T12:45:23.762Z,4.96
2022-12-28T12:48:20.911Z,4.94
2022-12-28T12:51:24.895Z,4.87
2022-12-28T12:54:15.837Z,4.84
2022-12-28T12:56:50.432Z,4.80
2022-12-28T12:59:44.309Z,4.80
2022-12-28T13:02:44.189Z,4.79
2022-12-28T13:05:19.041Z,4.76
2022-12-28T13:07:48.348Z,4.73
2022-12-28T13:10:24.609Z,4.71
2022-12-28T13:12:57.598Z,4.66
2022-12-28T13:15:27.848Z,4.71
2022-12-28T13:18:18.272Z,4.66
2022-12-28T13:20:55.453Z,4.69
2022-12-28T13:23:25.318Z,4.73
2022-12-28T13:25:58.045Z,4.76
2022-12-28T13:28:31.157Z,4.82
2022-12-28T13:31:07.731Z,4.80
2022-12-28T13:33:36.854Z,4.80
2022-12-28T13:36:12.828Z,4.77
2022-12-28T13:38:41.922Z,4.75
2022-12-28T13:41:21.162Z,4.73
2022-12-28T13:44:14.942Z,4.68
2022-12-28T13:46:49.714Z,4.66
2022-12-28T13:49:20.303Z,4.62
2022-12-28T13:51:53.443Z,4.62
2022-12-28T13:54:25.037Z,4.58
2022-12-28T13:57:14.726Z,4.59
2022-12-28T13:59:47.556Z,4.56
2022-12-28T14:02:20.989Z,4.52
2022-12-28T14:04:54.187Z,4.51
2022-12-28T14:07:27.539Z,4.48
2022-12-28T14:09:57.182Z,4.42
2022-12-28T14:12:26.915Z,4.39
2022-12-28T14:14:56.698Z,4.38
2022-12-28T14:17:26.830Z,4.34
2022-12-28T14:19:57.311Z,4.29
2022-12-28T14:22:31.000Z,4.28
2022-12-28T14:25:02.531Z,4.25
2022-12-28T14:27:36.210Z,4.25
2022-12-28T14:30:20.472Z,4.28
2022-12-28T14:32:49.718Z,4.27
2022-12-28T14:35:23.327Z,4.29
2022-12-28T14:37:54.614Z,4.28
2022-12-28T14:40:29.354Z,4.32
2022-12-28T14:42:59.032Z,4.32
2022-12-28T14:46:07.485Z,4.35
2022-12-28T14:48:39.585Z,4.35
2022-12-28T14:51:26.145Z,4.37
2022-12-28T14:54:28.951Z,4.37
2022-12-28T14:57:04.447Z,4.37
2022-12-28T14:59:36.758Z,4.39
2022-12-28T15:02:07.022Z,4.39
2022-12-28T15:04:38.851Z,4.44
2022-12-28T15:07:09.482Z,4.41
2022-12-28T15:09:38.504Z,4.45
2022-12-28T15:12:15.906Z,4.44
2022-12-28T15:14:47.597Z,4.44
2022-12-28T15:17:17.478Z,4.47
2022-12-28T15:19:46.729Z,4.48
2022-12-28T15:22:15.694Z,4.49
2022-12-28T15:24:48.329Z,4.51
2022-12-28T15:27:17.254Z,4.54
2022-12-28T15:32:35.315Z,4.54
2022-12-28T15:35:05.187Z,4.52
2022-12-28T15:37:34.088Z,4.51
2022-12-28T15:40:04.075Z,4.52
2022-12-28T15:42:39.895Z,4.48
2022-12-28T15:45:11.230Z,4.47
2022-12-28T15:47:40.273Z,4.47
2022-12-28T15:50:10.593Z,4.48
2022-12-28T15:52:39.942Z,4.48
2022-12-28T15:55:09.904Z,4.49
2022-12-28T15:57:38.949Z,4.51
2022-12-28T16:00:10.966Z,4.52
2022-12-28T16:02:40.177Z,4.55
2022-12-28T16:05:10.246Z,4.56
2022-12-28T16:07:39.187Z,4.59
2022-12-28T16:10:09.604Z,4.61
2022-12-28T16:12:38.535Z,4.63
2022-12-28T16:15:09.661Z,4.63
2022-12-28T16:17:48.610Z,4.66
2022-12-28T16:20:22.198Z,4.68
2022-12-28T16:22:53.106Z,4.68
2022-12-28T16:25:21.993Z,4.65
2022-12-28T16:27:50.866Z,4.68
2022-12-28T16:30:19.989Z,4.68
2022-12-28T16:32:48.898Z,4.68
2022-12-28T16:35:18.006Z,4.69
2022-12-28T16:37:47.049Z,4.73
2022-12-28T16:40:16.271Z,4.75
2022-12-28T16:42:45.272Z,4.73
2022-12-28T16:45:14.474Z,4.75
2022-12-28T16:47:45.004Z,4.75
2022-12-28T16:50:16.038Z,4.76
2022-12-28T16:52:44.919Z,4.77
2022-12-28T16:55:14.031Z,4.77
2022-12-28T16:57:43.013Z,4.82
2022-12-28T17:00:13.843Z,4.83
2022-12-28T17:02:43.067Z,4.86
2022-12-28T17:05:12.119Z,4.87
2022-12-28T17:07:41.077Z,4.90
2022-12-28T17:10:11.144Z,4.89
2022-12-28T17:12:40.052Z,4.90
2022-12-28T17:15:10.188Z,4.91
2022-12-28T17:17:38.964Z,4.93
2022-12-28T17:20:09.297Z,4.94
2022-12-28T17:22:38.475Z,4.97
2022-12-28T17:25:08.198Z,4.96
2022-12-28T17:27:37.106Z,4.99
2022-12-28T17:30:07.586Z,5.00
2022-12-28T17:32:36.499Z,5.01
2022-12-28T17:35:07.567Z,5.03
2022-12-28T17:37:36.874Z,5.04
2022-12-28T17:40:08.091Z,5.08
2022-12-28T17:42:37.067Z,5.14
2022-12-28T17:45:11.390Z,5.18
2022-12-28T17:47:41.044Z,5.17
2022-12-28T17:50:10.397Z,5.21
2022-12-28T17:52:41.351Z,5.21
2022-12-28T17:55:11.028Z,5.24
2022-12-28T17:57:40.302Z,5.25
2022-12-28T18:00:12.154Z,5.25
2022-12-28T18:02:46.449Z,5.25
2022-12-28T18:05:15.711Z,5.25
2022-12-28T18:07:44.624Z,5.24
2022-12-28T18:10:13.466Z,5.25
2022-12-28T18:12:42.547Z,5.25
2022-12-28T18:15:11.959Z,5.28
2022-12-28T18:17:40.810Z,5.27
2022-12-28T18:20:11.036Z,5.28
2022-12-28T18:22:39.880Z,5.28
2022-12-28T18:25:10.053Z,5.31
2022-12-28T18:27:39.085Z,5.31
2022-12-28T18:30:10.508Z,5.31
2022-12-28T18:32:39.435Z,5.35
2022-12-28T18:35:11.263Z,5.35
2022-12-28T18:37:40.285Z,5.35
2022-12-28T18:40:10.812Z,5.39
2022-12-28T18:42:39.765Z,5.41
2022-12-28T18:45:10.579Z,5.38
2022-12-28T18:47:39.564Z,5.42
2022-12-28T18:50:09.991Z,5.45
2022-12-28T18:52:41.190Z,5.45
2022-12-28T18:55:10.783Z,5.45
2022-12-28T18:57:39.848Z,5.48
2022-12-28T19:00:11.195Z,5.49
2022-12-28T19:02:40.234Z,5.49
2022-12-28T19:05:09.692Z,5.52
2022-12-28T19:07:39.898Z,5.53
2022-12-28T19:10:13.124Z,5.58
2022-12-28T19:12:43.658Z,5.61
2022-12-28T19:15:13.114Z,5.62
2022-12-28T19:17:41.990Z,5.65
2022-12-28T19:20:11.736Z,5.65
2022-12-28T19:22:40.815Z,5.66
2022-12-28T19:25:10.393Z,5.65
2022-12-28T19:27:39.434Z,5.69
2022-12-28T19:30:10.569Z,5.66
2022-12-28T19:32:39.687Z,5.69
2022-12-28T19:35:09.642Z,5.69
2022-12-28T19:37:38.691Z,5.67
2022-12-28T19:40:09.828Z,5.69
2022-12-28T19:42:38.869Z,5.67
2022-12-28T19:45:10.451Z,5.67
2022-12-28T19:47:39.483Z,5.67
2022-12-28T19:50:09.015Z,5.69
2022-12-28T19:52:38.004Z,5.69
2022-12-28T19:55:08.230Z,5.67
2022-12-28T19:57:38.354Z,5.69
2022-12-28T20:00:10.259Z,5.70
2022-12-28T20:02:39.317Z,5.69
2022-12-28T20:05:09.738Z,5.69
2022-12-28T20:07:39.339Z,5.66
2022-12-28T20:10:09.339Z,5.67
2022-12-28T20:12:38.301Z,5.65
2022-12-28T20:15:09.088Z,5.66
2022-12-28T20:17:37.983Z,5.65
2022-12-28T20:20:08.673Z,5.67
2022-12-28T20:22:40.678Z,5.66
2022-12-28T20:25:10.388Z,5.67
2022-12-28T20:27:39.439Z,5.67
2022-12-28T20:30:10.231Z,5.66
2022-12-28T20:32:44.547Z,5.66
2022-12-28T20:35:13.990Z,5.66
2022-12-28T20:37:43.039Z,5.70
2022-12-28T20:40:12.876Z,5.69
2022-12-28T20:42:59.925Z,5.67
2022-12-28T20:45:32.776Z,5.69
2022-12-28T20:48:01.645Z,5.70
2022-12-28T20:50:30.716Z,5.67
2022-12-28T20:52:59.636Z,5.69
2022-12-28T20:55:28.617Z,5.69
2022-12-28T20:57:57.514Z,5.67
2022-12-28T21:00:26.407Z,5.69
2022-12-28T21:02:55.451Z,5.69
2022-12-28T21:05:24.326Z,5.72
2022-12-28T21:07:53.192Z,5.73
2022-12-28T21:10:22.118Z,5.73
2022-12-28T21:12:50.965Z,5.76
2022-12-28T21:15:20.013Z,5.77
2022-12-28T21:17:48.875Z,5.80
2022-12-28T21:20:17.809Z,5.79
2022-12-28T21:22:46.657Z,5.83
2022-12-28T21:25:15.828Z,5.80
2022-12-28T21:27:45.045Z,5.82
2022-12-28T21:30:14.245Z,5.86
2022-12-28T21:32:43.116Z,5.87
2022-12-28T21:35:12.084Z,5.87
2022-12-28T21:37:41.010Z,5.87
2022-12-28T21:40:13.537Z,5.86
2022-12-28T21:42:42.422Z,5.86
2022-12-28T21:45:12.444Z,5.86
2022-12-28T21:47:41.409Z,5.87
2022-12-28T21:50:11.418Z,5.84
2022-12-28T21:52:40.327Z,5.84
2022-12-28T21:55:28.379Z,5.84
2022-12-28T21:57:59.609Z,5.86
2022-12-28T22:00:46.876Z,5.86
2022-12-28T22:03:34.395Z,5.84
2022-12-28T22:06:03.857Z,5.84
2022-12-28T22:08:51.618Z,5.86
2022-12-28T22:11:39.003Z,5.84
2022-12-28T22:14:08.262Z,5.86
2022-12-28T22:16:37.318Z,5.86
2022-12-28T22:19:08.444Z,5.84
2022-12-28T22:21:37.328Z,5.87
2022-12-28T22:24:06.999Z,5.87
2022-12-28T22:26:35.887Z,5.87
2022-12-28T22:29:04.956Z,5.87
2022-12-28T22:31:34.352Z,5.86
2022-12-28T22:34:07.057Z,5.89
2022-12-28T22:36:36.614Z,5.90
2022-12-28T22:39:05.539Z,5.89
2022-12-28T22:41:34.911Z,5.89
2022-12-28T22:44:04.112Z,5.90
2022-12-28T22:46:33.730Z,5.87
2022-12-28T22:49:02.644Z,5.87
2022-12-28T22:51:31.696Z,5.87
2022-12-28T22:54:00.590Z,5.87
2022-12-28T22:56:29.541Z,5.89
2022-12-28T22:59:01.595Z,5.83
2022-12-28T23:01:34.225Z,5.84
2022-12-28T23:04:03.288Z,5.84
2022-12-28T23:06:32.455Z,5.84
2022-12-28T23:09:01.314Z,5.86
2022-12-28T23:11:36.474Z,5.84
2022-12-28T23:14:26.229Z,5.83
2022-12-28T23:16:55.670Z,5.84
2022-12-28T23:19:42.657Z,5.84
2022-12-28T23:22:33.571Z,5.82
2022-12-28T23:25:20.572Z,5.84
2022-12-28T23:27:49.775Z,5.84
2022-12-28T23:30:20.710Z,5.84
2022-12-28T23:32:50.948Z,5.86
2022-12-28T23:35:20.808Z,5.84
2022-12-28T23:37:49.741Z,5.87
2022-12-28T23:40:21.072Z,5.87
2022-12-28T23:42:50.536Z,5.90
2022-12-28T23:45:20.095Z,5.90
2022-12-28T23:47:51.765Z,5.91
2022-12-28T23:50:20.936Z,5.91
2022-12-28T23:52:49.817Z,5.94
2022-12-28T23:55:18.747Z,5.94
2022-12-28T23:57:47.551Z,5.93
